Time;durP1;ratioP1;P1;durP2;ratioP2;P2;SDS_P1;SDS_P2;PMS_P1;PMS_P2;Temp;Humidity;BMP_temperature;BMP_pressure;BME280_temperature;BME280_humidity;BME280_pressure;Samples;Min_cycle;Max_cycle;Signal;HPM_P1;HPM_P2
2022/06/21 00:00:49;;;;;;;0.43;0.43;;;21.80;57.50;22.20;96429.00;;;;5072845;28;20211;-88
2022/06/21 00:03:20;;;;;;;0.40;0.27;;;21.80;57.60;22.10;96426.00;;;;5072975;28;20742;-87
2022/06/21 00:05:51;;;;;;;0.50;0.50;;;21.70;57.70;22.10;96430.00;;;;5072628;28;20231;-87
2022/06/21 00:08:23;;;;;;;0.50;0.43;;;21.60;57.60;22.00;96424.00;;;;5072960;28;20269;-88
2022/06/21 00:10:53;;;;;;;0.30;0.30;;;21.60;57.40;22.00;96420.00;;;;5072765;28;20196;-88
2022/06/21 00:13:24;;;;;;;1.40;0.40;;;21.50;57.20;21.90;96417.00;;;;5085900;28;20222;-88
2022/06/21 00:15:59;;;;;;;0.30;0.30;;;21.40;57.00;21.80;96426.00;;;;5080729;28;20219;-87
2022/06/21 00:18:29;;;;;;;0.30;0.30;;;21.40;56.80;21.70;96416.00;;;;5070506;28;20598;-87
2022/06/21 00:20:57;;;;;;;0.40;0.40;;;21.30;56.60;21.70;96420.00;;;;5078859;28;20773;-88
2022/06/21 00:23:34;;;;;;;0.93;0.30;;;21.20;57.10;21.60;96417.00;;;;5093216;28;20201;-87
2022/06/21 00:26:01;;;;;;;0.30;0.20;;;21.20;56.50;21.60;96418.00;;;;5078094;28;20196;-87
2022/06/21 00:28:28;;;;;;;0.43;0.30;;;21.10;56.40;21.50;96418.00;;;;5072592;28;20224;-87
2022/06/21 00:30:56;;;;;;;0.87;0.30;;;21.10;56.60;21.50;96415.00;;;;5066826;28;20249;-88
2022/06/21 00:33:25;;;;;;;0.43;0.30;;;21.10;56.50;21.40;96418.00;;;;5058946;28;20652;-88
2022/06/21 00:35:55;;;;;;;0.23;0.23;;;21.00;56.40;21.40;96424.00;;;;5072330;28;20717;-88
2022/06/21 00:38:30;;;;;;;0.37;0.33;;;21.00;56.40;21.40;96426.00;;;;5072653;28;20247;-87
2022/06/21 00:41:00;;;;;;;0.40;0.40;;;20.90;56.90;21.30;96427.00;;;;5072526;28;20171;-88
2022/06/21 00:43:34;;;;;;;0.43;0.43;;;20.90;56.40;21.30;96423.00;;;;5072609;28;20296;-88
2022/06/21 00:46:01;;;;;;;0.93;0.20;;;20.80;56.40;21.20;96427.00;;;;5065924;28;20617;-88
2022/06/21 00:48:37;;;;;;;1.07;0.60;;;20.80;56.30;21.20;96435.00;;;;5072610;28;20235;-88
2022/06/21 00:51:14;;;;;;;0.30;0.20;;;20.80;56.40;21.20;96436.00;;;;5072259;28;20260;-87
2022/06/21 00:53:50;;;;;;;0.37;0.30;;;20.70;56.30;21.10;96430.00;;;;5072758;28;20233;-88
2022/06/21 00:56:26;;;;;;;0.80;0.60;;;20.70;56.30;21.10;96429.00;;;;5072339;28;20254;-88
2022/06/21 00:58:53;;;;;;;0.40;0.33;;;20.60;56.20;21.10;96436.00;;;;5072679;28;20223;-88
2022/06/21 01:01:26;;;;;;;0.23;0.23;;;20.60;56.20;21.00;96428.00;;;;5061523;28;20681;-88
2022/06/21 01:03:57;;;;;;;0.73;0.30;;;20.60;56.30;21.00;96425.00;;;;5052490;28;20194;-87
2022/06/21 01:06:33;;;;;;;0.20;0.20;;;20.50;56.30;20.90;96422.00;;;;5068969;28;20195;-88
2022/06/21 01:09:07;;;;;;;0.50;0.40;;;20.50;56.50;20.90;96426.00;;;;5065165;28;20223;-88
2022/06/21 01:11:45;;;;;;;1.63;0.27;;;20.40;56.50;20.80;96419.00;;;;5072098;28;20666;-88
2022/06/21 01:14:16;;;;;;;0.60;0.30;;;20.40;56.60;20.80;96420.00;;;;5072206;28;20196;-88
2022/06/21 01:16:43;;;;;;;0.30;0.30;;;20.40;56.70;20.70;96415.00;;;;5071794;28;20221;-88
2022/06/21 01:19:22;;;;;;;0.83;0.20;;;20.30;56.80;20.70;96429.00;;;;5075219;28;20220;-88
2022/06/21 01:21:58;;;;;;;0.80;0.30;;;20.30;57.00;20.70;96417.00;;;;5075727;28;20214;-87
2022/06/21 01:24:43;;;;;;;0.33;0.30;;;20.20;56.90;20.70;96413.00;;;;5075482;28;20273;-88
2022/06/21 01:27:11;;;;;;;0.20;0.20;;;20.20;56.90;20.60;96417.00;;;;5070216;28;20231;-88
2022/06/21 01:29:39;;;;;;;0.20;0.20;;;20.20;56.90;20.50;96416.00;;;;5075765;28;20300;-88
2022/06/21 01:32:08;;;;;;;0.73;0.40;;;20.10;56.90;20.50;96419.00;;;;5073461;28;20223;-88
2022/06/21 01:34:36;;;;;;;0.20;0.20;;;20.10;57.00;20.50;96413.00;;;;5075603;28;20204;-88
2022/06/21 01:37:11;;;;;;;1.07;0.40;;;20.00;56.90;20.40;96409.00;;;;5082957;28;20223;-88
2022/06/21 01:39:46;;;;;;;0.30;0.30;;;20.00;57.00;20.40;96408.00;;;;5074716;28;20231;-88
2022/06/21 01:42:22;;;;;;;0.30;0.30;;;19.90;57.00;20.30;96414.00;;;;5073122;28;20198;-88
2022/06/21 01:44:54;;;;;;;0.30;0.30;;;19.90;57.00;20.30;96412.00;;;;5075361;28;20208;-88
2022/06/21 01:47:30;;;;;;;0.20;0.20;;;19.80;56.90;20.20;96416.00;;;;5075379;28;20184;-88
2022/06/21 01:50:04;;;;;;;1.27;0.40;;;19.80;57.00;20.20;96413.00;;;;5075494;28;20273;-88
2022/06/21 01:52:36;;;;;;;0.30;0.30;;;19.70;57.10;20.10;96413.00;;;;5075140;28;20227;-88
2022/06/21 01:55:11;;;;;;;0.30;0.30;;;19.70;57.10;20.10;96413.00;;;;5075369;28;20291;-88
2022/06/21 01:57:40;;;;;;;0.30;0.30;;;19.60;57.10;20.00;96410.00;;;;5075148;28;20664;-88
2022/06/21 02:00:09;;;;;;;0.40;0.40;;;19.60;57.20;20.00;96411.00;;;;5075191;28;20224;-88
2022/06/21 02:02:43;;;;;;;0.30;0.30;;;19.50;57.20;19.90;96404.00;;;;5075224;28;20273;-88
2022/06/21 02:05:17;;;;;;;0.80;0.47;;;19.50;57.20;19.80;96398.00;;;;5075011;28;20278;-88
2022/06/21 02:07:50;;;;;;;0.37;0.37;;;19.40;57.40;19.80;96389.00;;;;5074765;28;20227;-88
2022/06/21 02:10:26;;;;;;;0.27;0.27;;;19.30;57.50;19.70;96389.00;;;;5074988;28;20239;-88
2022/06/21 02:13:01;;;;;;;0.40;0.40;;;19.30;57.70;19.70;96392.00;;;;5075660;28;20203;-88
2022/06/21 02:15:40;;;;;;;0.50;0.33;;;19.20;57.80;19.60;96392.00;;;;5075066;28;20190;-88
2022/06/21 02:18:12;;;;;;;0.40;0.27;;;19.20;57.90;19.60;96389.00;;;;5074695;28;20639;-88
2022/06/21 02:20:47;;;;;;;1.33;0.40;;;19.10;58.00;19.50;96381.00;;;;5074911;28;20227;-87
2022/06/21 02:23:18;;;;;;;0.73;0.20;;;19.10;58.10;19.50;96391.00;;;;5074627;28;20200;-87
2022/06/21 02:25:46;;;;;;;0.37;0.30;;;19.10;58.20;19.50;96386.00;;;;5073208;28;20227;-88
2022/06/21 02:28:18;;;;;;;0.47;0.30;;;19.00;58.20;19.50;96383.00;;;;5074781;28;20229;-88
2022/06/21 02:30:48;;;;;;;0.43;0.43;;;19.00;58.30;19.50;96391.00;;;;5070722;28;20196;-88
2022/06/21 02:33:20;;;;;;;0.30;0.30;;;19.00;58.40;19.50;96393.00;;;;5074676;28;20758;-88
2022/06/21 02:35:53;;;;;;;0.30;0.20;;;19.00;58.50;19.50;96392.00;;;;5061753;28;20201;-88
2022/06/21 02:38:28;;;;;;;0.20;0.20;;;19.00;58.50;19.40;96393.00;;;;5059260;28;20763;-87
2022/06/21 02:41:06;;;;;;;1.30;0.40;;;18.90;58.40;19.40;96386.00;;;;5074225;28;20256;-88
2022/06/21 02:43:42;;;;;;;0.30;0.30;;;18.90;58.60;19.40;96376.00;;;;5074883;28;20266;-88
2022/06/21 02:46:15;;;;;;;0.33;0.30;;;18.90;58.70;19.30;96377.00;;;;5074069;28;20253;-88
2022/06/21 02:48:49;;;;;;;0.50;0.40;;;18.90;58.70;19.30;96383.00;;;;5054535;28;20278;-88
2022/06/21 02:51:24;;;;;;;0.63;0.37;;;18.80;58.60;19.30;96385.00;;;;5070173;28;20187;-88
2022/06/21 02:54:00;;;;;;;0.40;0.40;;;18.80;58.80;19.30;96378.00;;;;5074454;28;20199;-88
2022/06/21 02:56:37;;;;;;;2.23;0.40;;;18.80;58.80;19.30;96380.00;;;;5073918;28;20280;-88
2022/06/21 02:59:06;;;;;;;0.20;0.20;;;18.80;58.90;19.20;96382.00;;;;5074055;28;20273;-88
2022/06/21 03:01:38;;;;;;;0.93;0.30;;;18.70;58.90;19.20;96377.00;;;;5074077;28;20198;-88
2022/06/21 03:04:07;;;;;;;0.30;0.30;;;18.70;59.00;19.10;96377.00;;;;5072256;28;20722;-88
2022/06/21 03:06:35;;;;;;;0.90;0.30;;;18.70;59.00;19.10;96372.00;;;;5071431;28;20196;-88
2022/06/21 03:09:07;;;;;;;0.90;0.40;;;18.60;59.00;19.00;96372.00;;;;5074089;28;20639;-88
2022/06/21 03:11:43;;;;;;;0.50;0.50;;;18.60;59.10;19.00;96375.00;;;;5073564;28;20200;-88
2022/06/21 03:14:17;;;;;;;0.50;0.50;;;18.50;59.30;18.90;96378.00;;;;5075897;28;20607;-88
2022/06/21 03:16:46;;;;;;;1.83;0.67;;;18.50;59.50;18.90;96388.00;;;;5072912;28;20673;-87
2022/06/21 03:19:23;;;;;;;1.33;0.70;;;18.40;59.30;18.80;96389.00;;;;5074442;28;20216;-88
2022/06/21 03:21:50;;;;;;;0.40;0.40;;;18.40;59.60;18.80;96379.00;;;;5073008;28;20241;-88
2022/06/21 03:24:21;;;;;;;0.47;0.40;;;18.40;59.60;18.80;96370.00;;;;5075039;28;20196;-88
2022/06/21 03:26:57;;;;;;;0.90;0.53;;;18.30;59.80;18.70;96388.00;;;;5058243;28;20227;-88
2022/06/21 03:29:27;;;;;;;0.40;0.30;;;18.30;60.00;18.70;96389.00;;;;5062632;28;20298;-88
2022/06/21 03:31:55;;;;;;;0.73;0.47;;;18.30;60.20;18.70;96396.00;;;;5071332;28;20254;-88
2022/06/21 03:34:26;;;;;;;0.30;0.30;;;18.30;60.30;18.70;96403.00;;;;5053503;28;20278;-88
2022/06/21 03:36:54;;;;;;;1.90;0.40;;;18.20;60.30;18.70;96393.00;;;;5070120;28;20219;-88
2022/06/21 03:41:42;;;;;;;0.43;0.37;;;18.20;60.40;18.70;96406.00;;;;5073446;28;20726;-88
2022/06/21 03:42:17;;;;;;;3.00;0.40;;;18.20;60.60;18.70;96415.00;;;;5071901;28;20202;-88
2022/06/21 03:44:54;;;;;;;0.40;0.33;;;18.20;60.50;18.70;96412.00;;;;5072668;28;20240;-87
2022/06/21 03:47:30;;;;;;;1.57;0.47;;;18.20;60.60;18.60;96402.00;;;;5053414;28;20575;-88
2022/06/21 03:50:04;;;;;;;0.40;0.40;;;18.20;60.80;18.60;96413.00;;;;5058502;28;20207;-88
2022/06/21 03:52:43;;;;;;;0.40;0.40;;;18.20;60.70;18.60;96411.00;;;;5073286;28;20200;-88
2022/06/21 03:55:28;;;;;;;0.80;0.60;;;18.10;60.70;18.60;96407.00;;;;5072652;28;20207;-88
2022/06/21 03:58:07;;;;;;;0.40;0.40;;;18.10;61.00;18.60;96413.00;;;;5065040;28;20224;-88
2022/06/21 04:00:46;;;;;;;0.37;0.30;;;18.10;60.90;18.60;96413.00;;;;5073670;28;20192;-88
2022/06/21 04:03:22;;;;;;;0.30;0.30;;;18.10;61.00;18.60;96412.00;;;;5073024;28;20195;-87
2022/06/21 04:05:59;;;;;;;0.77;0.40;;;18.10;61.10;18.60;96410.00;;;;5072837;28;20192;-88
2022/06/21 04:08:35;;;;;;;0.50;0.50;;;18.10;61.10;18.60;96399.00;;;;5072805;28;20226;-88
2022/06/21 04:11:12;;;;;;;0.40;0.30;;;18.10;61.20;18.60;96400.00;;;;5072791;28;20261;-88
2022/06/21 04:13:48;;;;;;;0.50;0.33;;;18.10;61.30;18.60;96405.00;;;;5072771;28;20234;-88
2022/06/21 04:16:26;;;;;;;0.47;0.40;;;18.10;61.30;18.70;96405.00;;;;5072854;28;20315;-88
2022/06/21 04:19:01;;;;;;;0.40;0.40;;;18.10;61.50;18.70;96401.00;;;;5072800;28;20216;-87
2022/06/21 04:21:42;;;;;;;0.50;0.40;;;18.20;61.50;18.70;96406.00;;;;5067263;28;20212;-88
2022/06/21 04:24:18;;;;;;;0.70;0.40;;;18.20;61.50;18.70;96408.00;;;;5052802;28;20565;-85
2022/06/21 04:26:51;;;;;;;0.50;0.50;;;18.20;61.30;18.80;96411.00;;;;5069246;28;20200;-85
2022/06/21 04:29:28;;;;;;;0.87;0.77;;;18.20;61.30;18.80;96417.00;;;;5073006;28;20219;-85
2022/06/21 04:32:03;;;;;;;0.67;0.60;;;18.20;61.20;18.80;96410.00;;;;5067246;28;20535;-86
2022/06/21 04:34:38;;;;;;;0.30;0.30;;;18.20;61.10;18.90;96412.00;;;;5072600;28;20223;-84
2022/06/21 04:37:12;;;;;;;0.77;0.47;;;18.30;61.20;18.90;96403.00;;;;5070168;28;20261;-86
2022/06/21 04:39:51;;;;;;;0.53;0.53;;;18.30;61.10;19.00;96403.00;;;;5071991;28;20211;-85
2022/06/21 04:42:28;;;;;;;0.50;0.43;;;18.40;61.40;19.00;96395.00;;;;5068810;28;20234;-86
2022/06/21 04:45:02;;;;;;;0.37;0.37;;;18.40;61.20;19.10;96401.00;;;;5072080;28;20268;-86
2022/06/21 04:47:41;;;;;;;0.40;0.40;;;18.40;61.10;19.10;96389.00;;;;5072387;28;20192;-86
2022/06/21 04:50:25;;;;;;;0.43;0.37;;;18.50;61.60;19.20;96386.00;;;;5072357;28;20219;-86
2022/06/21 04:53:00;;;;;;;0.70;0.40;;;18.60;61.70;19.30;96382.00;;;;5073962;28;20599;-86
2022/06/21 04:55:52;;;;;;;0.43;0.37;;;18.60;61.40;19.30;96385.00;;;;5076294;28;20195;-85
2022/06/21 04:58:19;;;;;;;0.50;0.50;;;18.70;61.10;19.40;96374.00;;;;5078000;28;20297;-84
2022/06/21 05:00:47;;;;;;;0.43;0.43;;;18.70;60.90;19.40;96389.00;;;;5075018;28;20204;-84
2022/06/21 05:03:33;;;;;;;0.43;0.40;;;18.70;60.90;19.50;96383.00;;;;5069360;28;20231;-84
2022/06/21 05:06:01;;;;;;;0.40;0.40;;;18.80;61.10;19.50;96376.00;;;;5076676;28;20267;-86
2022/06/21 05:08:29;;;;;;;0.40;0.30;;;18.80;60.80;19.50;96373.00;;;;5075704;28;20224;-86
2022/06/21 05:11:01;;;;;;;1.60;0.40;;;18.80;60.60;19.60;96382.00;;;;5072138;28;20191;-86
2022/06/21 05:13:35;;;;;;;0.67;0.60;;;18.90;60.20;19.60;96385.00;;;;5075402;28;20192;-85
2022/06/21 05:16:10;;;;;;;0.53;0.53;;;18.90;60.00;19.60;96383.00;;;;5075995;28;20184;-86
2022/06/21 05:18:44;;;;;;;0.60;0.60;;;19.00;60.00;19.70;96384.00;;;;5075806;28;20722;-86
2022/06/21 05:21:18;;;;;;;0.73;0.60;;;19.00;60.00;19.70;96378.00;;;;5075216;28;20207;-86
2022/06/21 05:23:46;;;;;;;0.70;0.70;;;19.00;60.10;19.70;96375.00;;;;5069744;28;20286;-86
2022/06/21 05:26:25;;;;;;;0.60;0.60;;;19.00;59.80;19.70;96379.00;;;;5075798;28;20604;-87
2022/06/21 05:28:58;;;;;;;1.27;0.50;;;19.10;59.70;19.80;96386.00;;;;5075760;28;20273;-87
2022/06/21 05:31:30;;;;;;;0.57;0.57;;;19.10;59.60;19.80;96382.00;;;;5070019;28;20232;-86
2022/06/21 05:34:05;;;;;;;0.60;0.60;;;19.10;59.50;19.80;96386.00;;;;5075700;28;20627;-87
2022/06/21 05:36:38;;;;;;;0.80;0.40;;;19.10;59.50;19.90;96389.00;;;;5076207;28;20273;-86
2022/06/21 05:39:14;;;;;;;0.60;0.60;;;19.20;59.40;19.90;96380.00;;;;5076201;28;20247;-86
2022/06/21 05:41:45;;;;;;;0.63;0.53;;;19.20;59.10;19.90;96387.00;;;;5070365;28;20210;-87
2022/06/21 05:44:18;;;;;;;0.80;0.77;;;19.20;59.10;20.00;96396.00;;;;5076329;28;20258;-86
2022/06/21 05:46:50;;;;;;;1.07;0.70;;;19.30;59.30;20.00;96390.00;;;;5074249;28;20258;-87
2022/06/21 05:49:25;;;;;;;0.63;0.60;;;19.30;59.40;20.00;96397.00;;;;5075694;28;20208;-85
2022/06/21 05:51:56;;;;;;;0.63;0.50;;;19.30;59.20;20.10;96389.00;;;;5075114;28;20227;-86
2022/06/21 05:54:32;;;;;;;0.97;0.50;;;19.40;59.20;20.10;96400.00;;;;5075328;28;20194;-87
2022/06/21 05:57:02;;;;;;;1.53;0.67;;;19.40;58.80;20.20;96393.00;;;;5068261;28;20239;-87
2022/06/21 05:59:29;;;;;;;1.50;0.80;;;19.40;58.60;20.20;96393.00;;;;5075019;28;20659;-88
2022/06/21 06:02:03;;;;;;;4.47;0.73;;;19.50;58.40;20.30;96393.00;;;;5075346;28;20199;-87
2022/06/21 06:04:40;;;;;;;0.93;0.60;;;19.50;58.50;20.30;96387.00;;;;5074155;28;20196;-87
2022/06/21 06:07:15;;;;;;;1.20;0.50;;;19.60;58.50;20.40;96388.00;;;;5074963;28;20208;-86
2022/06/21 06:09:48;;;;;;;1.17;0.60;;;19.60;58.30;20.40;96377.00;;;;5056481;28;20254;-86
2022/06/21 06:12:21;;;;;;;0.50;0.50;;;19.70;58.20;20.40;96386.00;;;;5074885;28;20715;-85
2022/06/21 06:14:55;;;;;;;1.13;0.80;;;19.70;58.20;20.50;96394.00;;;;5075011;28;20625;-86
2022/06/21 06:17:32;;;;;;;1.37;1.00;;;19.70;57.80;20.50;96408.00;;;;5074421;28;20311;-86
2022/06/21 06:20:13;;;;;;;0.90;0.87;;;19.80;57.80;20.60;96397.00;;;;5063165;28;20212;-85
2022/06/21 06:22:47;;;;;;;2.30;0.80;;;19.80;58.20;20.70;96396.00;;;;5074550;28;20657;-87
2022/06/21 06:25:21;;;;;;;0.83;0.73;;;19.90;58.00;20.80;96402.00;;;;5069498;28;20191;-88
2022/06/21 06:28:00;;;;;;;2.37;0.70;;;20.00;58.00;21.00;96399.00;;;;5071107;28;20202;-87
2022/06/21 06:30:37;;;;;;;0.83;0.70;;;20.10;58.00;21.20;96409.00;;;;5071202;28;20253;-88
2022/06/21 06:33:17;;;;;;;1.13;0.70;;;20.20;58.50;21.30;96399.00;;;;5070754;28;20629;-88
2022/06/21 06:35:48;;;;;;;0.97;0.60;;;20.30;57.80;21.50;96399.00;;;;5068543;28;20201;-87
2022/06/21 06:38:18;;;;;;;0.67;0.67;;;20.50;57.50;21.60;96402.00;;;;5070150;28;20249;-87
2022/06/21 06:40:52;;;;;;;1.43;0.87;;;20.50;57.30;21.70;96390.00;;;;5073478;28;20231;-87
2022/06/21 06:43:29;;;;;;;1.80;0.70;;;20.70;56.90;21.80;96389.00;;;;5074118;28;20241;-87
2022/06/21 06:45:58;;;;;;;3.30;0.70;;;20.80;56.50;21.90;96393.00;;;;5059594;28;20214;-87
2022/06/21 06:48:32;;;;;;;0.80;0.80;;;20.90;56.60;22.00;96408.00;;;;5073190;28;20224;-87
2022/06/21 06:51:31;;;;;;;0.50;0.50;;;21.00;56.60;22.10;96399.00;;;;5074265;28;20713;-87
2022/06/21 06:54:02;;;;;;;2.07;0.97;;;21.10;56.20;22.20;96402.00;;;;5070143;28;20195;-86
2022/06/21 06:56:45;;;;;;;1.23;1.00;;;21.20;56.20;22.30;96394.00;;;;5070464;28;20238;-86
2022/06/21 06:59:15;;;;;;;2.97;1.00;;;21.30;56.10;22.40;96388.00;;;;5065980;28;20584;-87
2022/06/21 07:01:50;;;;;;;1.03;0.80;;;21.40;56.20;22.50;96392.00;;;;5071641;28;20234;-82
2022/06/21 07:04:20;;;;;;;2.73;0.93;;;21.40;55.80;22.60;96389.00;;;;5071359;28;20192;-83
2022/06/21 07:06:53;;;;;;;0.80;0.67;;;21.50;55.50;22.60;96394.00;;;;5069373;28;20192;-84
2022/06/21 07:09:26;;;;;;;1.63;0.60;;;21.60;55.40;22.80;96405.00;;;;5067919;28;20713;-85
2022/06/21 07:12:03;;;;;;;1.53;0.80;;;21.70;55.30;22.90;96402.00;;;;5066607;28;20246;-84
2022/06/21 07:14:32;;;;;;;1.20;0.73;;;21.80;55.40;23.00;96414.00;;;;5071073;28;20192;-85
2022/06/21 07:17:25;;;;;;;1.30;0.77;;;22.00;54.90;23.10;96419.00;;;;5073404;28;20612;-85
2022/06/21 07:19:55;;;;;;;1.17;0.77;;;22.10;54.30;23.20;96412.00;;;;5072698;28;20211;-85
2022/06/21 07:22:31;;;;;;;1.00;0.83;;;22.20;54.60;23.40;96415.00;;;;5067179;28;20200;-85
2022/06/21 07:25:13;;;;;;;1.43;0.90;;;22.30;54.70;23.50;96402.00;;;;5062308;28;20185;-85
2022/06/21 07:27:45;;;;;;;2.00;0.93;;;22.50;54.30;23.60;96393.00;;;;5073067;28;20680;-84
2022/06/21 07:30:17;;;;;;;1.67;0.70;;;22.60;54.10;23.80;96386.00;;;;5066342;28;20247;-84
2022/06/21 07:32:54;;;;;;;0.97;0.90;;;22.70;54.00;23.90;96392.00;;;;5070514;28;20601;-84
2022/06/21 07:35:28;;;;;;;0.77;0.70;;;22.80;53.30;24.10;96391.00;;;;5068181;28;20223;-84
2022/06/21 07:38:06;;;;;;;1.00;0.70;;;22.90;53.20;24.20;96399.00;;;;5076017;28;20283;-84
2022/06/21 07:40:40;;;;;;;2.97;0.90;;;23.10;53.20;24.40;96391.00;;;;5073674;28;20183;-84
2022/06/21 07:43:14;;;;;;;2.03;0.90;;;23.20;52.80;24.50;96402.00;;;;5074832;28;20207;-84
2022/06/21 07:45:48;;;;;;;0.80;0.70;;;23.30;52.60;24.70;96390.00;;;;5074664;28;20396;-85
2022/06/21 07:48:23;;;;;;;0.73;0.60;;;23.50;52.30;24.80;96398.00;;;;5074129;28;20282;-85
2022/06/21 07:50:53;;;;;;;1.50;0.80;;;23.60;51.80;25.00;96397.00;;;;5058825;28;20195;-84
2022/06/21 07:53:28;;;;;;;1.10;0.70;;;23.70;51.60;25.20;96392.00;;;;5072671;28;20221;-84
2022/06/21 07:56:05;;;;;;;0.70;0.60;;;23.90;51.40;25.30;96391.00;;;;5072516;28;20223;-84
2022/06/21 07:58:42;;;;;;;1.17;0.70;;;24.00;51.10;25.50;96396.00;;;;5069922;28;20255;-84
2022/06/21 08:07:18;;;;;;;0.63;0.63;;;24.40;50.80;25.90;96410.00;;;;5073263;28;20239;-84
2022/06/21 08:09:56;;;;;;;0.50;0.50;;;24.60;50.50;26.00;96400.00;;;;5076172;28;20226;-83
2022/06/21 08:12:23;;;;;;;1.00;0.80;;;24.70;50.30;26.10;96413.00;;;;5075333;28;20281;-84
2022/06/21 08:14:50;;;;;;;1.20;0.80;;;24.80;50.20;26.30;96408.00;;;;5075734;28;20218;-83
2022/06/21 08:17:27;;;;;;;1.30;0.77;;;24.90;49.80;26.40;96407.00;;;;5063050;28;20225;-84
2022/06/21 08:20:03;;;;;;;1.87;0.90;;;25.10;49.70;26.60;96403.00;;;;5074829;28;20692;-84
2022/06/21 08:22:39;;;;;;;1.73;0.80;;;25.20;49.10;26.80;96390.00;;;;5074161;28;20203;-84
2022/06/21 08:25:23;;;;;;;0.43;0.43;;;25.30;48.70;26.90;96396.00;;;;5070417;28;20188;-84
2022/06/21 08:27:58;;;;;;;1.33;0.60;;;25.40;48.30;27.00;96395.00;;;;5069500;28;20295;-85
2022/06/21 08:30:33;;;;;;;0.97;0.80;;;25.60;49.00;27.10;96393.00;;;;5059115;28;20253;-84
2022/06/21 08:33:08;;;;;;;1.13;0.93;;;25.70;48.60;27.20;96397.00;;;;5059633;28;20219;-83
2022/06/21 08:35:41;;;;;;;0.60;0.53;;;25.80;48.10;27.40;96408.00;;;;5068109;28;20194;-85
2022/06/21 08:38:15;;;;;;;0.50;0.50;;;25.90;48.20;27.50;96399.00;;;;5071926;28;20243;-85
2022/06/21 08:48:29;;;;;;;1.17;0.70;;;26.50;47.80;28.40;96424.00;;;;5062175;28;20278;-85
2022/06/21 08:51:37;;;;;;;0.82;0.60;;;26.70;47.80;28.60;96430.00;;;;5072746;28;20235;-85
2022/06/21 08:54:22;;;;;;;0.77;0.63;;;26.80;47.70;28.80;96429.00;;;;5069369;28;20667;-85
2022/06/21 08:57:00;;;;;;;0.98;0.85;;;27.00;48.20;29.00;96430.00;;;;5068917;28;20276;-85
2022/06/21 08:59:50;;;;;;;3.53;1.08;;;27.10;48.10;29.20;96436.00;;;;5071723;28;20224;-85
2022/06/21 09:02:40;;;;;;;0.63;0.63;;;27.30;46.90;29.40;96426.00;;;;5067284;28;20650;-83
2022/06/21 09:05:27;;;;;;;0.93;0.80;;;27.50;47.30;29.60;96429.00;;;;5069437;28;20541;-84
2022/06/21 09:08:40;;;;;;;0.95;0.82;;;27.60;47.30;29.80;96432.00;;;;5053036;28;20239;-84
2022/06/21 09:11:27;;;;;;;1.73;0.90;;;27.80;46.40;30.00;96439.00;;;;5052793;28;20280;-83
2022/06/21 09:14:32;;;;;;;1.05;0.90;;;28.00;46.10;30.10;96447.00;;;;5067814;28;20226;-84
2022/06/21 09:17:13;;;;;;;2.25;0.82;;;28.20;46.10;30.30;96442.00;;;;5088004;28;20194;-84
2022/06/21 09:20:10;;;;;;;0.73;0.73;;;28.40;45.80;30.50;96445.00;;;;5092653;28;20257;-85
2022/06/21 09:22:56;;;;;;;1.42;0.90;;;28.60;45.10;30.60;96447.00;;;;5092976;28;20172;-84
2022/06/21 09:25:32;;;;;;;0.88;0.60;;;28.70;44.80;30.70;96446.00;;;;5093616;28;20203;-84
2022/06/21 09:28:09;;;;;;;1.00;0.68;;;28.90;45.10;30.90;96452.00;;;;5093795;28;20237;-85
2022/06/21 09:30:46;;;;;;;1.15;1.05;;;29.00;44.70;31.00;96437.00;;;;5090017;28;20246;-85
2022/06/21 09:33:25;;;;;;;0.70;0.68;;;29.20;44.90;31.10;96439.00;;;;5073995;28;20212;-85
2022/06/21 09:36:05;;;;;;;0.80;0.80;;;29.30;44.80;31.30;96436.00;;;;5072487;28;20192;-86
2022/06/21 09:38:42;;;;;;;1.45;0.93;;;29.40;44.00;31.40;96435.00;;;;5070325;28;20266;-85
2022/06/21 09:41:20;;;;;;;2.25;1.33;;;29.60;43.80;31.50;96425.00;;;;5076985;28;20232;-84
2022/06/21 09:44:06;;;;;;;2.17;0.93;;;29.70;43.50;31.50;96421.00;;;;5083031;28;20192;-84
2022/06/21 09:46:48;;;;;;;1.48;1.10;;;29.80;43.50;31.40;96421.00;;;;5066629;28;20196;-84
2022/06/21 09:49:36;;;;;;;1.40;0.90;;;29.80;43.60;31.40;96421.00;;;;5062008;28;20220;-84
2022/06/21 09:52:20;;;;;;;3.00;0.93;;;29.80;43.50;31.40;96430.00;;;;5068043;28;20192;-83
2022/06/21 09:55:02;;;;;;;2.35;0.90;;;29.80;43.40;31.50;96420.00;;;;5080007;28;20227;-84
2022/06/21 09:57:41;;;;;;;1.00;0.90;;;29.90;43.10;31.50;96417.00;;;;5077142;28;20211;-84
2022/06/21 10:00:18;;;;;;;1.15;0.95;;;29.90;42.90;31.50;96416.00;;;;5074097;28;20263;-84
2022/06/21 10:03:09;;;;;;;1.17;0.90;;;29.90;42.90;31.40;96408.00;;;;5069646;28;20685;-84
2022/06/21 10:05:52;;;;;;;0.98;0.98;;;29.90;42.50;31.40;96399.00;;;;5059071;28;20185;-84
2022/06/21 10:08:35;;;;;;;2.08;0.80;;;29.90;43.00;31.40;96399.00;;;;5080700;28;20288;-84
2022/06/21 10:11:16;;;;;;;1.33;0.70;;;30.00;43.40;31.40;96408.00;;;;5074751;28;20638;-84
2022/06/21 10:14:17;;;;;;;1.45;0.80;;;30.00;43.40;31.40;96409.00;;;;5075583;28;20236;-83
2022/06/21 10:17:14;;;;;;;1.63;0.90;;;30.00;43.10;31.50;96393.00;;;;5068976;28;20207;-85
2022/06/21 10:20:08;;;;;;;1.58;0.70;;;30.00;42.80;31.60;96386.00;;;;5064627;28;20257;-84
2022/06/21 10:22:51;;;;;;;2.25;1.00;;;30.10;43.20;31.70;96380.00;;;;5077651;28;20196;-83
2022/06/21 10:25:44;;;;;;;0.98;0.90;;;30.10;43.30;31.70;96380.00;;;;5066230;28;20229;-85
2022/06/21 10:28:41;;;;;;;1.20;1.00;;;30.20;42.90;31.60;96381.00;;;;5054931;28;20212;-86
2022/06/21 10:31:40;;;;;;;1.55;0.77;;;30.20;42.80;31.60;96373.00;;;;5072320;28;20652;-86
2022/06/21 10:35:03;;;;;;;1.75;1.10;;;30.20;42.60;31.50;96369.00;;;;5070274;28;20668;-86
2022/06/21 10:37:47;;;;;;;1.55;0.98;;;30.20;42.70;31.50;96365.00;;;;5018997;28;20231;-86
2022/06/21 10:40:48;;;;;;;0.70;0.70;;;30.10;43.00;31.50;96362.00;;;;5069051;28;20227;-86
2022/06/21 10:43:49;;;;;;;3.67;1.00;;;30.20;43.10;31.50;96360.00;;;;5060316;28;20199;-86
2022/06/21 10:46:27;;;;;;;1.30;0.90;;;30.30;42.50;31.50;96358.00;;;;5072731;28;20256;-86
2022/06/21 10:49:37;;;;;;;0.98;0.70;;;30.30;43.00;31.50;96352.00;;;;5067537;28;20270;-86
2022/06/21 10:52:28;;;;;;;2.80;0.80;;;30.40;43.00;31.40;96347.00;;;;5045663;28;20821;-86
2022/06/21 10:55:30;;;;;;;1.38;0.90;;;30.40;42.40;31.40;96354.00;;;;5074034;28;20275;-86
2022/06/21 10:58:14;;;;;;;0.88;0.80;;;30.40;42.20;31.40;96354.00;;;;5072189;28;20282;-87
2022/06/21 11:04:29;;;;;;;0.95;0.85;;;30.30;42.60;31.20;96354.00;;;;5073212;28;20203;-85
2022/06/21 11:07:08;;;;;;;0.80;0.80;;;30.20;42.90;31.20;96364.00;;;;5069690;28;20204;-86
2022/06/21 11:09:50;;;;;;;1.60;0.90;;;30.10;42.90;31.10;96370.00;;;;5069744;28;20269;-86
2022/06/21 11:15:25;;;;;;;1.27;0.77;;;29.90;42.10;31.00;96350.00;;;;5071405;28;20193;-85
2022/06/21 11:18:10;;;;;;;0.95;0.77;;;29.90;42.20;30.90;96348.00;;;;5067452;28;20196;-86
2022/06/21 11:20:53;;;;;;;2.22;0.80;;;29.80;42.00;30.80;96339.00;;;;5071102;28;20249;-86
2022/06/21 11:23:34;;;;;;;0.98;0.90;;;29.70;41.60;30.60;96348.00;;;;5066421;28;20223;-85
2022/06/21 11:26:17;;;;;;;1.00;0.95;;;29.60;41.90;30.50;96348.00;;;;5070472;28;20287;-85
2022/06/21 11:28:57;;;;;;;3.33;1.10;;;29.50;42.60;30.30;96333.00;;;;5068526;28;20635;-86
2022/06/21 11:31:42;;;;;;;1.10;1.00;;;29.40;43.40;30.20;96339.00;;;;5068845;28;20681;-85
2022/06/21 11:34:30;;;;;;;0.80;0.80;;;29.30;43.60;30.10;96326.00;;;;5071781;28;20245;-85
2022/06/21 11:37:13;;;;;;;1.88;1.00;;;29.20;43.60;30.00;96328.00;;;;5069034;28;20779;-86
2022/06/21 11:39:56;;;;;;;2.35;1.10;;;29.20;43.80;30.00;96333.00;;;;5066791;28;20684;-86
2022/06/21 11:42:28;;;;;;;1.20;0.85;;;29.10;43.40;30.00;96332.00;;;;5066661;28;20278;-86
2022/06/21 11:45:33;;;;;;;1.08;0.98;;;29.00;43.40;30.00;96333.00;;;;5068442;28;20196;-86
2022/06/21 11:48:30;;;;;;;1.48;0.85;;;29.00;43.70;29.90;96325.00;;;;5070885;28;20410;-86
2022/06/21 11:51:20;;;;;;;1.77;0.98;;;29.00;43.60;29.90;96326.00;;;;5070190;28;20196;-86
2022/06/21 11:54:00;;;;;;;1.67;0.90;;;28.90;43.70;29.90;96313.00;;;;5053230;28;20197;-86
2022/06/21 11:56:40;;;;;;;0.85;0.85;;;28.90;44.10;29.80;96315.00;;;;5060716;28;20274;-86
2022/06/21 11:59:23;;;;;;;1.10;0.77;;;28.90;43.90;29.80;96316.00;;;;5072026;28;20323;-87